Portada
METAR-TAF:

METAR-TAF

Aeroports :

Mae Sot, Tailàndia

latitud: 16-40N, longitud: 098-33E, altitud: 196 m

Observació

L'informe es va fer fa 4 hores i 59 minuts, a les 11:00 UTC
Vent 10 kt del Oest/Sud-Oest
Temperatura 30°C
Humitat 70%
Pressió 1004 hPa
Visibilitat 10 km o més
Escasses núvols a una alçada de 2000 ft, Cumulus congestus.
Cel ennuvolat a una alçada de 8000 ft

METAR: VTPM 121100Z 25010KT 9999 FEW020TCU BKN080 30/24 Q1004 NOSIG

Hora: 22:59 (15:59 UTC)

Pronòstic

L'informe es va fer fa 4 hores i 59 minuts, a les 11:00 UTC
Pronòstic vàlid del 12 a les 12 UTC al 13 a les 12 UTC
Vent 5 kt del Oest
Visibilitat 10 km o més
Núvols disperses a una alçada de 3000 ft
Temporalment
l' 13 a les 07 UTC al 13 a les 12 UTC
Vent 15 kt del Sud amb ràfegues de 30 kt
Visibilitat: 4000 m
Escasses núvols a una alçada de 2000 ft, Cumulonimbus.
Cel ennuvolat a una alçada de 2500 ft
tempesta, pluja

TAF: VTPM 121100Z 1212/1312 26005KT 9999 SCT030 TEMPO 1307/1312 19015G30KT 4000 TSRA FEW020CB BKN025

Observacions i pronòstics meteorològics de més de 4000 aeroports (METAR i TAF).

Les estacions disponibles són els punts grocs i vermells al mapa.

Posi el ratolí al punt desitjat per veure el nom de l'estació.

Feu clic per veure les observacions i els pronòstics meteorològics.

Per canviar el mapa: feu clic els botons verds amb una creu de color negre per apropar; al botó verd amb un guió per allunyar la imatge; o en les fletxes verdes per a mapes adjacents.


METAR-TAF: